CEB752 VVTS-RPLL
Flight info
| Callsign | CEB752 |
|---|---|
| Flight time | N/A |
| Altitude | 33000 |
| Route | ANTRI2F PTH N500 PANDI/N0474F350 M765 REKEL DCT LUBAN LUBAN7R |
| Aircraft | A21N/M-SDE2E3FGHIJ1RWXY/LB1 |
Departure
| Time | 2026-05-08 07:20 |
|---|---|
| Airport | Tan Son Nhat International Airport (VVTS) |
Arrival
| Time | N/A |
|---|---|
| Airport | Ninoy Aquino International Airport (RPLL) |
| Time | Latitude | Longitude | Altitude | Speed | Heading |
|---|---|---|---|---|---|
| 2026-05-08 06:49 | 10.81464 | 106.66124 | 39 ft | 0 kts | 95° |
| 2026-05-08 07:02 | 10.81464 | 106.66122 | 40 ft | 1 kts | 95° |
| 2026-05-08 07:02 | 10.81465 | 106.66107 | 39 ft | 1 kts | 94° |
| 2026-05-08 07:03 | 10.81466 | 106.66097 | 39 ft | 2 kts | 91° |
| 2026-05-08 07:03 | 10.81465 | 106.66082 | 39 ft | 2 kts | 75° |
| 2026-05-08 07:03 | 10.81460 | 106.66067 | 39 ft | 2 kts | 63° |
| 2026-05-08 07:04 | 10.81441 | 106.66044 | 39 ft | 2 kts | 38° |
| 2026-05-08 07:04 | 10.81429 | 106.66035 | 39 ft | 2 kts | 26° |
| 2026-05-08 07:04 | 10.81415 | 106.66029 | 39 ft | 2 kts | 14° |
| 2026-05-08 07:04 | 10.81405 | 106.66028 | 39 ft | 0 kts | 6° |
| 2026-05-08 07:05 | 10.81401 | 106.66027 | 39 ft | 0 kts | 5° |
| 2026-05-08 07:09 | 10.81409 | 106.66028 | 39 ft | 3 kts | 5° |
| 2026-05-08 07:09 | 10.81461 | 106.66032 | 38 ft | 10 kts | 5° |
| 2026-05-08 07:09 | 10.81555 | 106.66042 | 37 ft | 15 kts | 6° |
| 2026-05-08 07:10 | 10.81668 | 106.66054 | 37 ft | 13 kts | 6° |
| 2026-05-08 07:10 | 10.81753 | 106.66062 | 37 ft | 12 kts | 4° |
| 2026-05-08 07:10 | 10.81829 | 106.66071 | 37 ft | 7 kts | 17° |
| 2026-05-08 07:10 | 10.81874 | 106.66110 | 37 ft | 9 kts | 61° |
| 2026-05-08 07:11 | 10.81894 | 106.66155 | 37 ft | 6 kts | 68° |
| 2026-05-08 07:11 | 10.81909 | 106.66194 | 37 ft | 6 kts | 69° |
| 2026-05-08 07:11 | 10.81927 | 106.66242 | 37 ft | 8 kts | 69° |
| 2026-05-08 07:11 | 10.81950 | 106.66302 | 37 ft | 9 kts | 69° |
| 2026-05-08 07:12 | 10.81975 | 106.66370 | 37 ft | 10 kts | 70° |
| 2026-05-08 07:12 | 10.82002 | 106.66445 | 37 ft | 11 kts | 69° |
| 2026-05-08 07:12 | 10.82032 | 106.66525 | 37 ft | 12 kts | 69° |
| 2026-05-08 07:12 | 10.82057 | 106.66589 | 38 ft | 7 kts | 69° |
| 2026-05-08 07:13 | 10.82075 | 106.66637 | 38 ft | 4 kts | 69° |
| 2026-05-08 07:13 | 10.82090 | 106.66673 | 39 ft | 6 kts | 69° |
| 2026-05-08 07:13 | 10.82106 | 106.66718 | 40 ft | 7 kts | 69° |
| 2026-05-08 07:13 | 10.82130 | 106.66782 | 40 ft | 11 kts | 70° |
| 2026-05-08 07:14 | 10.82159 | 106.66860 | 40 ft | 9 kts | 69° |
| 2026-05-08 07:14 | 10.82166 | 106.66877 | 41 ft | 0 kts | 69° |
| 2026-05-08 07:15 | 10.82170 | 106.66888 | 41 ft | 3 kts | 69° |
| 2026-05-08 07:15 | 10.82181 | 106.66917 | 41 ft | 6 kts | 69° |
| 2026-05-08 07:15 | 10.82199 | 106.66964 | 42 ft | 7 kts | 68° |
| 2026-05-08 07:15 | 10.82226 | 106.67006 | 43 ft | 7 kts | 37° |
| 2026-05-08 07:16 | 10.82253 | 106.67011 | 43 ft | 3 kts | 340° |
| 2026-05-08 07:16 | 10.82268 | 106.67004 | 43 ft | 0 kts | 338° |
| 2026-05-08 07:17 | 10.82283 | 106.66998 | 43 ft | 4 kts | 338° |
| 2026-05-08 07:17 | 10.82318 | 106.66970 | 42 ft | 8 kts | 309° |
| 2026-05-08 07:17 | 10.82351 | 106.66921 | 42 ft | 6 kts | 282° |
| 2026-05-08 07:17 | 10.82340 | 106.66872 | 41 ft | 0 kts | 250° |
| 2026-05-08 07:19 | 10.82314 | 106.66801 | 40 ft | 39 kts | 249° |
| 2026-05-08 07:20 | 10.82111 | 106.66262 | 38 ft | 122 kts | 250° |
| 2026-05-08 07:20 | 10.81721 | 106.65227 | 108 ft | 182 kts | 250° |
| 2026-05-08 07:20 | 10.81258 | 106.64000 | 811 ft | 186 kts | 249° |
| 2026-05-08 07:20 | 10.80802 | 106.62804 | 1664 ft | 181 kts | 249° |
| 2026-05-08 07:21 | 10.80345 | 106.61607 | 2101 ft | 187 kts | 249° |
| 2026-05-08 07:21 | 10.79860 | 106.60341 | 2380 ft | 202 kts | 249° |
| 2026-05-08 07:21 | 10.79327 | 106.58933 | 2664 ft | 218 kts | 249° |
| 2026-05-08 07:21 | 10.78747 | 106.57410 | 2962 ft | 236 kts | 246° |
| 2026-05-08 07:22 | 10.77737 | 106.56069 | 3351 ft | 246 kts | 210° |
| 2026-05-08 07:22 | 10.76121 | 106.55634 | 3967 ft | 242 kts | 172° |
| 2026-05-08 07:22 | 10.74568 | 106.56207 | 4591 ft | 238 kts | 144° |
| 2026-05-08 07:22 | 10.73191 | 106.57127 | 5190 ft | 241 kts | 144° |
| 2026-05-08 07:23 | 10.71783 | 106.58066 | 5795 ft | 243 kts | 144° |
| 2026-05-08 07:23 | 10.70338 | 106.59005 | 6428 ft | 246 kts | 144° |
| 2026-05-08 07:23 | 10.68902 | 106.59927 | 7043 ft | 247 kts | 144° |
| 2026-05-08 07:23 | 10.67421 | 106.60868 | 7671 ft | 250 kts | 144° |
| 2026-05-08 07:24 | 10.65935 | 106.61810 | 8290 ft | 252 kts | 144° |
| 2026-05-08 07:24 | 10.64547 | 106.62865 | 8897 ft | 249 kts | 125° |
| 2026-05-08 07:24 | 10.63823 | 106.64401 | 9489 ft | 244 kts | 96° |
| 2026-05-08 07:24 | 10.63864 | 106.66157 | 9845 ft | 256 kts | 81° |
| 2026-05-08 07:25 | 10.64106 | 106.68021 | 10132 ft | 273 kts | 81° |
| 2026-05-08 07:25 | 10.64353 | 106.69974 | 10420 ft | 290 kts | 82° |
| 2026-05-08 07:25 | 10.64875 | 106.74301 | 10972 ft | 323 kts | 82° |
| 2026-05-08 07:26 | 10.65144 | 106.76593 | 11236 ft | 339 kts | 83° |
| 2026-05-08 07:26 | 10.65427 | 106.79021 | 11581 ft | 351 kts | 82° |
| 2026-05-08 07:26 | 10.65713 | 106.81490 | 12161 ft | 355 kts | 83° |
| 2026-05-08 07:26 | 10.66007 | 106.84023 | 12736 ft | 359 kts | 83° |
| 2026-05-08 07:27 | 10.66297 | 106.86536 | 13321 ft | 362 kts | 83° |
| 2026-05-08 07:27 | 10.66588 | 106.89076 | 13882 ft | 366 kts | 83° |
| 2026-05-08 07:27 | 10.66884 | 106.91659 | 14447 ft | 368 kts | 83° |
| 2026-05-08 07:27 | 10.67182 | 106.94250 | 15030 ft | 371 kts | 83° |
| 2026-05-08 07:28 | 10.67483 | 106.96877 | 15608 ft | 374 kts | 83° |
| 2026-05-08 07:28 | 10.67784 | 106.99503 | 16146 ft | 377 kts | 83° |
| 2026-05-08 07:28 | 10.68088 | 107.02153 | 16684 ft | 380 kts | 83° |
| 2026-05-08 07:28 | 10.68395 | 107.04833 | 17227 ft | 383 kts | 83° |
| 2026-05-08 07:29 | 10.68703 | 107.07530 | 17769 ft | 386 kts | 83° |
| 2026-05-08 07:29 | 10.69015 | 107.10258 | 18302 ft | 389 kts | 83° |
| 2026-05-08 07:29 | 10.69325 | 107.12973 | 18819 ft | 391 kts | 83° |
| 2026-05-08 07:29 | 10.69642 | 107.15752 | 19341 ft | 393 kts | 83° |
| 2026-05-08 07:30 | 10.69956 | 107.18516 | 19858 ft | 396 kts | 83° |
| 2026-05-08 07:30 | 10.70271 | 107.21283 | 20342 ft | 398 kts | 83° |
| 2026-05-08 07:30 | 10.70590 | 107.24084 | 20796 ft | 401 kts | 84° |
| 2026-05-08 07:30 | 10.70916 | 107.26945 | 21242 ft | 404 kts | 84° |
| 2026-05-08 07:31 | 10.71268 | 107.29765 | 21672 ft | 406 kts | 82° |
| 2026-05-08 07:31 | 10.71767 | 107.32600 | 22112 ft | 409 kts | 79° |
| 2026-05-08 07:31 | 10.72426 | 107.35432 | 22534 ft | 412 kts | 76° |
| 2026-05-08 07:31 | 10.73206 | 107.38230 | 22933 ft | 415 kts | 75° |
| 2026-05-08 07:32 | 10.74009 | 107.41047 | 23314 ft | 418 kts | 74° |
| 2026-05-08 07:32 | 10.74816 | 107.43869 | 23670 ft | 422 kts | 74° |
| 2026-05-08 07:32 | 10.75643 | 107.46761 | 24024 ft | 425 kts | 74° |
| 2026-05-08 07:32 | 10.76468 | 107.49648 | 24388 ft | 428 kts | 74° |
| 2026-05-08 07:33 | 10.77295 | 107.52544 | 24755 ft | 431 kts | 74° |
| 2026-05-08 07:33 | 10.78133 | 107.55483 | 25100 ft | 434 kts | 74° |
| 2026-05-08 07:33 | 10.78985 | 107.58473 | 25416 ft | 438 kts | 73° |
| 2026-05-08 07:33 | 10.79827 | 107.61431 | 25751 ft | 441 kts | 73° |
| 2026-05-08 07:34 | 10.80688 | 107.64455 | 26093 ft | 443 kts | 73° |
| 2026-05-08 07:34 | 10.81545 | 107.67469 | 26399 ft | 447 kts | 73° |
| 2026-05-08 07:34 | 10.82410 | 107.70510 | 26710 ft | 450 kts | 73° |
| 2026-05-08 07:34 | 10.83275 | 107.73555 | 27019 ft | 453 kts | 73° |
| 2026-05-08 07:35 | 10.84152 | 107.76643 | 27322 ft | 456 kts | 73° |
| 2026-05-08 07:35 | 10.85043 | 107.79779 | 27624 ft | 459 kts | 73° |
| 2026-05-08 07:35 | 10.85926 | 107.82889 | 27926 ft | 462 kts | 73° |
| 2026-05-08 07:35 | 10.86819 | 107.86037 | 28216 ft | 464 kts | 73° |
| 2026-05-08 07:36 | 10.87722 | 107.89222 | 28500 ft | 467 kts | 73° |
| 2026-05-08 07:36 | 10.88612 | 107.92367 | 28762 ft | 471 kts | 73° |
| 2026-05-08 07:36 | 10.89527 | 107.95598 | 28901 ft | 477 kts | 72° |
| 2026-05-08 07:36 | 10.90448 | 107.98845 | 29063 ft | 482 kts | 72° |
| 2026-05-08 07:37 | 10.91383 | 108.02150 | 29395 ft | 483 kts | 73° |
| 2026-05-08 07:37 | 10.92235 | 108.05450 | 29864 ft | 482 kts | 75° |
| 2026-05-08 07:37 | 10.92920 | 108.08782 | 30376 ft | 479 kts | 78° |
| 2026-05-08 07:37 | 10.93434 | 108.12117 | 30865 ft | 477 kts | 81° |
| 2026-05-08 07:38 | 10.93858 | 108.15447 | 31329 ft | 475 kts | 81° |
| 2026-05-08 07:38 | 10.94269 | 108.18769 | 31782 ft | 474 kts | 81° |
| 2026-05-08 07:38 | 10.94676 | 108.22076 | 32225 ft | 472 kts | 81° |
| 2026-05-08 07:38 | 10.95082 | 108.25375 | 32675 ft | 470 kts | 81° |
| 2026-05-08 07:39 | 10.95495 | 108.28710 | 32857 ft | 474 kts | 81° |
| 2026-05-08 07:39 | 10.96334 | 108.35453 | 32849 ft | 485 kts | 81° |
| 2026-05-08 07:40 | 10.97174 | 108.42236 | 32851 ft | 491 kts | 81° |
| 2026-05-08 07:40 | 10.98034 | 108.49194 | 32841 ft | 497 kts | 81° |
| 2026-05-08 07:41 | 10.98881 | 108.56085 | 32838 ft | 480 kts | 81° |
| 2026-05-08 07:41 | 10.99692 | 108.62695 | 32841 ft | 472 kts | 81° |
| 2026-05-08 07:42 | 11.00511 | 108.69341 | 32841 ft | 472 kts | 81° |
| 2026-05-08 07:42 | 11.01323 | 108.75960 | 32844 ft | 472 kts | 81° |
| 2026-05-08 07:43 | 11.02130 | 108.82559 | 32845 ft | 472 kts | 81° |
| 2026-05-08 07:43 | 11.02944 | 108.89191 | 32847 ft | 472 kts | 81° |
| 2026-05-08 07:44 | 11.03750 | 108.95792 | 32853 ft | 472 kts | 81° |
| 2026-05-08 07:44 | 11.04559 | 109.02436 | 32846 ft | 472 kts | 81° |
| 2026-05-08 07:45 | 11.05365 | 109.09074 | 32854 ft | 472 kts | 81° |
| 2026-05-08 07:45 | 11.06161 | 109.15647 | 32856 ft | 472 kts | 81° |
| 2026-05-08 07:46 | 11.06963 | 109.22267 | 32849 ft | 472 kts | 81° |
| 2026-05-08 07:46 | 11.07764 | 109.28907 | 32854 ft | 472 kts | 81° |